Time;durP1;ratioP1;P1;durP2;ratioP2;P2;SDS_P1;SDS_P2;PMS_P1;PMS_P2;Temp;Humidity;BMP_temperature;BMP_pressure;BME280_temperature;BME280_humidity;BME280_pressure;Samples;Min_cycle;Max_cycle;Signal;HPM_P1;HPM_P2
2023/02/05 00:02:25;;;;;;;16.35;13.93;;;;;;;;;;5054442;28;20202;-66
2023/02/05 00:04:53;;;;;;;17.30;14.38;;;;;;;;;;5054757;28;20236;-65
2023/02/05 00:07:20;;;;;;;16.45;13.90;;;;;;;;;;5054471;28;20284;-66
2023/02/05 00:09:47;;;;;;;19.88;14.32;;;;;;;;;;5054312;28;20250;-65
2023/02/05 00:12:16;;;;;;;22.27;14.85;;;;;;;;;;5054449;28;20200;-65
2023/02/05 00:14:43;;;;;;;19.30;14.25;;;;;;;;;;5054469;28;20198;-65
2023/02/05 00:17:10;;;;;;;14.98;13.55;;;;;;;;;;5054151;28;20238;-65
2023/02/05 00:19:37;;;;;;;18.15;15.05;;;;;;;;;;5054444;28;20201;-66
2023/02/05 00:22:04;;;;;;;20.55;15.50;;;;;;;;;;5054308;28;20194;-66
2023/02/05 00:24:32;;;;;;;22.33;17.55;;;;;;;;;;5054489;28;20220;-65
2023/02/05 00:26:59;;;;;;;24.58;16.70;;;;;;;;;;5054318;28;20309;-65
2023/02/05 00:29:27;;;;;;;21.80;15.45;;;;;;;;;;5054342;28;20611;-66
2023/02/05 00:31:55;;;;;;;22.55;15.55;;;;;;;;;;5054229;28;20197;-66
2023/02/05 00:34:22;;;;;;;18.58;14.32;;;;;;;;;;5054100;28;20203;-65
2023/02/05 00:36:49;;;;;;;18.25;14.27;;;;;;;;;;5053753;28;20728;-66
2023/02/05 00:39:17;;;;;;;21.23;14.73;;;;;;;;;;5054069;28;20198;-66
2023/02/05 00:41:45;;;;;;;21.38;15.30;;;;;;;;;;5054033;28;20240;-66
2023/02/05 00:44:12;;;;;;;18.20;15.25;;;;;;;;;;5053962;28;20550;-66
2023/02/05 00:46:40;;;;;;;15.82;13.75;;;;;;;;;;5054141;28;20661;-66
2023/02/05 00:49:07;;;;;;;17.00;15.25;;;;;;;;;;5053924;28;20196;-66
2023/02/05 00:51:35;;;;;;;18.13;15.13;;;;;;;;;;5054098;28;20199;-66
2023/02/05 00:54:02;;;;;;;17.10;15.30;;;;;;;;;;5053441;28;20202;-65
2023/02/05 00:56:29;;;;;;;18.27;14.93;;;;;;;;;;5053548;28;20212;-66
2023/02/05 00:58:58;;;;;;;18.67;14.27;;;;;;;;;;5053787;28;20561;-66
2023/02/05 01:01:26;;;;;;;18.42;14.98;;;;;;;;;;5053817;28;20195;-65
2023/02/05 01:03:54;;;;;;;20.10;15.18;;;;;;;;;;5053650;28;20199;-66
2023/02/05 01:06:21;;;;;;;19.27;13.80;;;;;;;;;;5053629;28;20202;-64
2023/02/05 01:08:49;;;;;;;17.13;14.38;;;;;;;;;;5053494;28;20565;-65
2023/02/05 01:11:16;;;;;;;17.65;14.43;;;;;;;;;;5053240;28;20203;-65
2023/02/05 01:13:43;;;;;;;19.73;15.38;;;;;;;;;;5053387;28;20201;-65
2023/02/05 01:16:10;;;;;;;17.15;15.32;;;;;;;;;;5053385;28;20229;-66
2023/02/05 01:18:37;;;;;;;18.55;14.75;;;;;;;;;;5053505;28;20205;-66
2023/02/05 01:21:06;;;;;;;16.05;14.45;;;;;;;;;;5053358;28;20203;-67
2023/02/05 01:23:34;;;;;;;21.42;16.60;;;;;;;;;;5053150;28;20203;-66
2023/02/05 01:26:01;;;;;;;19.05;15.32;;;;;;;;;;5053398;28;20226;-66
2023/02/05 01:28:28;;;;;;;20.50;16.10;;;;;;;;;;5053019;28;20229;-66
2023/02/05 01:30:55;;;;;;;17.58;14.70;;;;;;;;;;5053040;28;20201;-66
2023/02/05 01:33:22;;;;;;;24.50;15.35;;;;;;;;;;5053140;28;20198;-66
2023/02/05 01:35:49;;;;;;;20.98;14.88;;;;;;;;;;5053027;28;20201;-66
2023/02/05 01:38:18;;;;;;;18.50;16.30;;;;;;;;;;5072426;28;20206;-66
2023/02/05 01:40:45;;;;;;;20.35;15.65;;;;;;;;;;5073337;28;20193;-66
2023/02/05 01:43:13;;;;;;;21.02;17.30;;;;;;;;;;5073242;28;20193;-66
2023/02/05 01:46:04;;;;;;;20.23;16.05;;;;;;;;;;5073556;28;20226;-66
2023/02/05 01:48:34;;;;;;;20.52;15.57;;;;;;;;;;5073299;28;20212;-66
2023/02/05 01:51:02;;;;;;;19.98;15.88;;;;;;;;;;5072918;28;20203;-66
2023/02/05 01:53:33;;;;;;;19.13;15.82;;;;;;;;;;5073168;28;20626;-66
2023/02/05 01:56:02;;;;;;;18.70;14.27;;;;;;;;;;5072855;28;20210;-66
2023/02/05 01:58:31;;;;;;;19.50;14.98;;;;;;;;;;5073073;28;20201;-66
2023/02/05 02:00:58;;;;;;;19.48;14.85;;;;;;;;;;5073296;28;20204;-66
2023/02/05 02:03:26;;;;;;;19.88;15.43;;;;;;;;;;5073050;28;20204;-66
2023/02/05 02:05:53;;;;;;;18.08;15.50;;;;;;;;;;5073173;28;20197;-66
2023/02/05 02:08:21;;;;;;;22.40;16.80;;;;;;;;;;5076814;28;20639;-66
2023/02/05 02:10:51;;;;;;;23.35;18.05;;;;;;;;;;5076961;28;20193;-65
2023/02/05 02:13:19;;;;;;;28.13;18.10;;;;;;;;;;5076978;28;20192;-65
2023/02/05 02:15:47;;;;;;;22.23;18.60;;;;;;;;;;5076461;28;20275;-66
2023/02/05 02:18:27;;;;;;;24.83;20.10;;;;;;;;;;5076649;28;20201;-65
2023/02/05 02:21:01;;;;;;;23.88;17.50;;;;;;;;;;5076655;28;20192;-66
2023/02/05 02:23:37;;;;;;;23.40;17.85;;;;;;;;;;5076740;28;20542;-66
2023/02/05 02:26:17;;;;;;;18.83;16.75;;;;;;;;;;5076429;28;20231;-65
2023/02/05 02:28:50;;;;;;;22.38;17.13;;;;;;;;;;5076448;28;20251;-65
2023/02/05 02:31:19;;;;;;;22.52;17.08;;;;;;;;;;5077044;28;20192;-65
2023/02/05 02:33:49;;;;;;;17.40;14.80;;;;;;;;;;5076266;28;20204;-65
2023/02/05 02:36:19;;;;;;;17.00;13.93;;;;;;;;;;5076432;28;20716;-65
2023/02/05 02:38:49;;;;;;;14.85;13.25;;;;;;;;;;5076069;28;20194;-65
2023/02/05 02:41:19;;;;;;;18.20;14.05;;;;;;;;;;5076114;28;20651;-65
2023/02/05 02:43:50;;;;;;;18.42;14.95;;;;;;;;;;5076129;28;20223;-65
2023/02/05 02:46:20;;;;;;;19.83;13.80;;;;;;;;;;5076435;28;20550;-65
2023/02/05 02:48:48;;;;;;;16.50;13.07;;;;;;;;;;5076038;28;20228;-65
2023/02/05 02:51:16;;;;;;;17.42;13.85;;;;;;;;;;5075841;28;20656;-65
2023/02/05 02:53:46;;;;;;;18.88;13.52;;;;;;;;;;5076001;28;20239;-65
2023/02/05 02:56:14;;;;;;;14.32;12.82;;;;;;;;;;5076070;28;20197;-65
2023/02/05 02:58:44;;;;;;;17.35;13.68;;;;;;;;;;5075981;28;20596;-65
2023/02/05 03:01:13;;;;;;;15.48;13.88;;;;;;;;;;5075781;28;20669;-65
2023/02/05 03:03:41;;;;;;;21.38;13.82;;;;;;;;;;5075950;28;20204;-65
2023/02/05 03:06:10;;;;;;;15.88;13.95;;;;;;;;;;5075957;28;20567;-65
2023/02/05 03:08:42;;;;;;;15.75;12.95;;;;;;;;;;5075477;28;20212;-65
2023/02/05 03:11:12;;;;;;;16.33;13.85;;;;;;;;;;5076604;28;20186;-65
2023/02/05 03:13:39;;;;;;;17.02;13.95;;;;;;;;;;5076064;28;20203;-65
2023/02/05 03:16:07;;;;;;;17.83;14.00;;;;;;;;;;5075308;28;20657;-65
2023/02/05 03:18:36;;;;;;;20.40;15.18;;;;;;;;;;5074175;28;20654;-65
2023/02/05 03:21:04;;;;;;;16.08;14.43;;;;;;;;;;5075346;28;20654;-65
2023/02/05 03:23:32;;;;;;;16.45;13.40;;;;;;;;;;5076000;28;20200;-65
2023/02/05 03:25:59;;;;;;;16.45;14.70;;;;;;;;;;5075658;28;20228;-65
2023/02/05 03:28:26;;;;;;;27.63;15.65;;;;;;;;;;5075588;28;20221;-65
2023/02/05 03:30:55;;;;;;;17.92;15.70;;;;;;;;;;5075407;28;20294;-65
2023/02/05 03:33:28;;;;;;;19.00;14.30;;;;;;;;;;5075431;28;20208;-65
2023/02/05 03:36:00;;;;;;;16.10;14.50;;;;;;;;;;5075451;28;20185;-65
2023/02/05 03:38:32;;;;;;;20.17;14.77;;;;;;;;;;5075490;28;20545;-65
2023/02/05 03:41:05;;;;;;;16.88;14.98;;;;;;;;;;5074999;28;20586;-65
2023/02/05 03:43:37;;;;;;;18.13;16.23;;;;;;;;;;5074955;28;20188;-65
2023/02/05 03:46:08;;;;;;;17.80;14.52;;;;;;;;;;5075296;28;20280;-65
2023/02/05 03:48:40;;;;;;;18.67;15.15;;;;;;;;;;5075011;28;20219;-65
2023/02/05 03:51:17;;;;;;;17.65;14.77;;;;;;;;;;5075066;28;20278;-68
2023/02/05 03:53:50;;;;;;;17.40;14.68;;;;;;;;;;5074673;28;20184;-65
2023/02/05 03:56:21;;;;;;;20.80;15.60;;;;;;;;;;5075505;28;20196;-65
2023/02/05 03:58:49;;;;;;;23.95;15.73;;;;;;;;;;5074524;28;20194;-65
2023/02/05 04:01:16;;;;;;;20.05;14.82;;;;;;;;;;5074847;28;20192;-65
2023/02/05 04:03:44;;;;;;;19.08;15.18;;;;;;;;;;5074681;28;20208;-65
2023/02/05 04:06:12;;;;;;;16.85;14.25;;;;;;;;;;5074893;28;20198;-65
2023/02/05 04:08:39;;;;;;;16.58;14.45;;;;;;;;;;5075266;28;20226;-65
2023/02/05 04:11:08;;;;;;;19.38;15.48;;;;;;;;;;5074802;28;20266;-65
2023/02/05 04:13:35;;;;;;;17.85;15.02;;;;;;;;;;5074247;28;20658;-65
2023/02/05 04:16:02;;;;;;;20.20;15.82;;;;;;;;;;5074224;28;20646;-65
2023/02/05 04:18:29;;;;;;;18.15;16.23;;;;;;;;;;5074371;28;20210;-65
2023/02/05 04:20:57;;;;;;;22.15;16.20;;;;;;;;;;5074687;28;20192;-66
2023/02/05 04:23:26;;;;;;;17.85;15.65;;;;;;;;;;5074049;28;20239;-65
2023/02/05 04:25:53;;;;;;;17.15;15.25;;;;;;;;;;5073771;28;20243;-65
2023/02/05 04:28:21;;;;;;;26.88;15.45;;;;;;;;;;5074203;28;20225;-65
2023/02/05 04:30:48;;;;;;;18.67;14.65;;;;;;;;;;5073932;28;20530;-65
2023/02/05 04:33:15;;;;;;;18.30;15.60;;;;;;;;;;5074186;28;20192;-65
2023/02/05 04:35:42;;;;;;;20.92;17.15;;;;;;;;;;5074113;28;20197;-65
2023/02/05 04:38:09;;;;;;;17.92;16.00;;;;;;;;;;5074628;28;20212;-65
2023/02/05 04:40:38;;;;;;;19.67;15.18;;;;;;;;;;5074031;28;20208;-65
2023/02/05 04:43:05;;;;;;;20.20;17.48;;;;;;;;;;5073700;28;20675;-65
2023/02/05 04:45:32;;;;;;;23.75;17.30;;;;;;;;;;5073853;28;20251;-64
2023/02/05 04:48:00;;;;;;;21.05;16.05;;;;;;;;;;5074051;28;20246;-66
2023/02/05 04:50:27;;;;;;;20.48;16.48;;;;;;;;;;5073959;28;20559;-66
2023/02/05 04:52:55;;;;;;;23.13;16.58;;;;;;;;;;5073604;28;20197;-66
2023/02/05 04:55:22;;;;;;;20.35;17.00;;;;;;;;;;5073632;28;20208;-66
2023/02/05 04:57:50;;;;;;;22.35;17.10;;;;;;;;;;5052433;28;20198;-66
2023/02/05 05:00:18;;;;;;;23.50;16.52;;;;;;;;;;5052941;28;20204;-66
2023/02/05 05:02:45;;;;;;;24.10;16.52;;;;;;;;;;5053648;28;20198;-66
2023/02/05 05:05:12;;;;;;;23.13;17.05;;;;;;;;;;5053307;28;20202;-66
2023/02/05 05:07:39;;;;;;;19.83;16.80;;;;;;;;;;5053547;28;20197;-66
2023/02/05 05:10:07;;;;;;;23.33;17.23;;;;;;;;;;5053497;28;20236;-66
2023/02/05 05:12:34;;;;;;;22.10;19.35;;;;;;;;;;5053277;28;20197;-66
2023/02/05 05:15:03;;;;;;;24.50;18.15;;;;;;;;;;5053328;28;20529;-66
2023/02/05 05:17:30;;;;;;;24.38;18.42;;;;;;;;;;5053361;28;20554;-66
2023/02/05 05:19:58;;;;;;;24.23;18.52;;;;;;;;;;5052601;28;20205;-66
2023/02/05 05:22:25;;;;;;;27.95;20.65;;;;;;;;;;5053345;28;20283;-66
2023/02/05 05:24:52;;;;;;;25.85;19.17;;;;;;;;;;5053398;28;20226;-66
2023/02/05 05:27:21;;;;;;;23.35;18.60;;;;;;;;;;5053002;28;20564;-66
2023/02/05 05:29:49;;;;;;;25.73;18.67;;;;;;;;;;5052802;28;20618;-66
2023/02/05 05:32:18;;;;;;;34.30;20.05;;;;;;;;;;5052980;28;20198;-66
2023/02/05 05:34:45;;;;;;;35.70;18.00;;;;;;;;;;5053151;28;20555;-66
2023/02/05 05:37:12;;;;;;;23.20;17.83;;;;;;;;;;5053229;28;20200;-66
2023/02/05 05:45:09;;;;;;;23.45;17.95;;;;;;;;;;5057135;28;20602;-67
2023/02/05 05:47:37;;;;;;;28.75;19.85;;;;;;;;;;5057048;28;20198;-66
2023/02/05 05:50:05;;;;;;;32.10;18.88;;;;;;;;;;5056671;28;20224;-66
2023/02/05 05:52:32;;;;;;;25.92;19.05;;;;;;;;;;5056899;28;20198;-66
2023/02/05 05:54:59;;;;;;;36.55;21.52;;;;;;;;;;5056601;28;20210;-66
2023/02/05 05:57:26;;;;;;;38.05;20.23;;;;;;;;;;5056613;28;20267;-66
2023/02/05 05:59:53;;;;;;;29.40;19.65;;;;;;;;;;5056913;28;20546;-66
2023/02/05 06:02:21;;;;;;;38.28;21.08;;;;;;;;;;5056999;28;20566;-66
2023/02/05 06:04:49;;;;;;;36.60;20.35;;;;;;;;;;5056905;28;20201;-65
2023/02/05 06:07:16;;;;;;;26.92;19.48;;;;;;;;;;5056686;28;20205;-66
2023/02/05 06:09:44;;;;;;;33.63;21.70;;;;;;;;;;5056490;28;20691;-65
2023/02/05 06:12:11;;;;;;;25.23;17.95;;;;;;;;;;5056295;28;20191;-66
2023/02/05 06:14:38;;;;;;;39.40;20.48;;;;;;;;;;5056573;28;20658;-66
2023/02/05 06:17:06;;;;;;;29.45;19.48;;;;;;;;;;5056652;28;20305;-66
2023/02/05 06:19:33;;;;;;;40.72;22.23;;;;;;;;;;5056388;28;20201;-65
2023/02/05 06:22:02;;;;;;;41.28;22.02;;;;;;;;;;5056460;28;20585;-65
2023/02/05 06:24:29;;;;;;;37.22;21.75;;;;;;;;;;5056277;28;20237;-66
2023/02/05 06:26:56;;;;;;;33.90;19.65;;;;;;;;;;5055857;28;20193;-66
2023/02/05 06:29:24;;;;;;;32.67;20.73;;;;;;;;;;5056449;28;20222;-66
2023/02/05 06:31:51;;;;;;;34.85;20.48;;;;;;;;;;5056495;28;20197;-66
2023/02/05 06:34:18;;;;;;;32.70;20.80;;;;;;;;;;5056433;28;20193;-66
2023/02/05 06:36:45;;;;;;;36.40;21.75;;;;;;;;;;5056280;28;20198;-66
2023/02/05 06:39:14;;;;;;;36.40;22.58;;;;;;;;;;5055996;28;20202;-66
2023/02/05 06:41:41;;;;;;;41.20;20.50;;;;;;;;;;5056362;28;20209;-66
2023/02/05 06:44:08;;;;;;;31.17;20.27;;;;;;;;;;5056233;28;20197;-66
2023/02/05 06:46:35;;;;;;;37.28;20.30;;;;;;;;;;5055836;28;20209;-66
2023/02/05 06:49:03;;;;;;;46.22;21.33;;;;;;;;;;5055344;28;20690;-66
2023/02/05 06:51:30;;;;;;;45.17;23.05;;;;;;;;;;5055518;28;20650;-66
2023/02/05 06:53:57;;;;;;;63.00;25.42;;;;;;;;;;5055421;28;20673;-66
2023/02/05 06:56:25;;;;;;;44.90;23.38;;;;;;;;;;5055632;28;20651;-66
2023/02/05 06:58:53;;;;;;;39.92;25.13;;;;;;;;;;5055800;28;20198;-66
2023/02/05 07:01:21;;;;;;;49.42;23.42;;;;;;;;;;5055461;28;20202;-65
2023/02/05 07:03:51;;;;;;;48.63;26.45;;;;;;;;;;5055479;28;20198;-65
2023/02/05 07:06:18;;;;;;;51.40;23.45;;;;;;;;;;5055409;28;20191;-66
2023/02/05 07:08:46;;;;;;;40.80;23.08;;;;;;;;;;5055416;28;20700;-66
2023/02/05 07:11:13;;;;;;;50.03;25.10;;;;;;;;;;5055458;28;20247;-65
2023/02/05 07:13:42;;;;;;;47.00;24.17;;;;;;;;;;5055575;28;20659;-65
2023/02/05 07:16:09;;;;;;;42.08;23.17;;;;;;;;;;5055824;28;20288;-65
2023/02/05 07:18:37;;;;;;;51.42;23.73;;;;;;;;;;5055385;28;20205;-65
2023/02/05 07:21:05;;;;;;;45.08;24.40;;;;;;;;;;5055098;28;20205;-64
2023/02/05 07:23:32;;;;;;;39.55;23.67;;;;;;;;;;5055659;28;20201;-65
2023/02/05 07:26:00;;;;;;;47.75;24.42;;;;;;;;;;5054918;28;20225;-65
2023/02/05 07:28:27;;;;;;;57.03;25.80;;;;;;;;;;5055428;28;20200;-65
2023/02/05 07:30:55;;;;;;;43.75;24.75;;;;;;;;;;5055502;28;20569;-65
2023/02/05 07:33:23;;;;;;;36.97;25.08;;;;;;;;;;5055400;28;20200;-64
2023/02/05 07:35:50;;;;;;;41.42;24.70;;;;;;;;;;5055187;28;20192;-64
2023/02/05 07:38:17;;;;;;;53.08;25.50;;;;;;;;;;5055001;28;20199;-64
2023/02/05 07:40:44;;;;;;;46.38;26.90;;;;;;;;;;5055331;28;20203;-65
2023/02/05 07:43:11;;;;;;;52.50;26.35;;;;;;;;;;5054734;28;20198;-65
2023/02/05 07:45:38;;;;;;;42.22;24.55;;;;;;;;;;5055241;28;20193;-65
2023/02/05 07:48:07;;;;;;;40.55;25.83;;;;;;;;;;5054521;28;20197;-66
2023/02/05 07:50:34;;;;;;;49.17;26.23;;;;;;;;;;5054545;28;20236;-67
2023/02/05 07:53:01;;;;;;;47.35;26.27;;;;;;;;;;5055049;28;20193;-70
2023/02/05 07:55:28;;;;;;;52.45;27.40;;;;;;;;;;5054854;28;20197;-65
2023/02/05 07:57:56;;;;;;;46.72;23.20;;;;;;;;;;5054059;28;20643;-64
2023/02/05 08:00:23;;;;;;;51.92;25.40;;;;;;;;;;5054410;28;20672;-64
2023/02/05 08:02:50;;;;;;;48.53;25.00;;;;;;;;;;5054764;28;20205;-65
2023/02/05 08:05:19;;;;;;;49.20;24.13;;;;;;;;;;5053777;28;20250;-64
2023/02/05 08:07:46;;;;;;;45.95;23.98;;;;;;;;;;5053853;28;20550;-65
2023/02/05 08:10:14;;;;;;;35.50;22.83;;;;;;;;;;5054523;28;20574;-65
2023/02/05 08:12:41;;;;;;;44.67;22.27;;;;;;;;;;5054699;28;20205;-66
2023/02/05 08:15:08;;;;;;;39.65;24.10;;;;;;;;;;5054586;28;20221;-64
2023/02/05 08:17:36;;;;;;;42.08;23.17;;;;;;;;;;5054328;28;20200;-65
2023/02/05 08:20:06;;;;;;;36.25;19.95;;;;;;;;;;5053823;28;20207;-65
2023/02/05 08:22:35;;;;;;;32.38;19.95;;;;;;;;;;5054515;28;20228;-64
2023/02/05 08:25:02;;;;;;;24.42;14.38;;;;;;;;;;5053905;28;20230;-66
2023/02/05 08:27:29;;;;;;;29.98;15.90;;;;;;;;;;5053388;28;20194;-66
2023/02/05 08:29:56;;;;;;;23.38;13.02;;;;;;;;;;5053743;28;20708;-64
2023/02/05 08:32:24;;;;;;;25.17;13.60;;;;;;;;;;5054110;28;20326;-65
2023/02/05 08:34:51;;;;;;;19.85;12.55;;;;;;;;;;5054401;28;20221;-65
2023/02/05 08:37:18;;;;;;;27.25;13.32;;;;;;;;;;5053622;28;20190;-65
2023/02/05 08:39:48;;;;;;;28.20;12.20;;;;;;;;;;5053327;28;20214;-66
2023/02/05 08:42:15;;;;;;;22.88;13.85;;;;;;;;;;5053578;28;20272;-65
2023/02/05 08:44:42;;;;;;;23.98;12.30;;;;;;;;;;5053865;28;20221;-65
2023/02/05 08:47:09;;;;;;;19.27;9.85;;;;;;;;;;5053765;28;20220;-65
2023/02/05 08:49:37;;;;;;;9.73;5.47;;;;;;;;;;5053498;28;20225;-65
2023/02/05 08:52:04;;;;;;;11.73;8.20;;;;;;;;;;5053755;28;20202;-65
2023/02/05 08:54:31;;;;;;;17.23;8.45;;;;;;;;;;5053580;28;20200;-65
2023/02/05 08:57:00;;;;;;;11.57;7.53;;;;;;;;;;5053956;28;20201;-65
2023/02/05 08:59:27;;;;;;;11.85;7.22;;;;;;;;;;5051931;28;20204;-65
2023/02/05 09:01:54;;;;;;;9.95;6.20;;;;;;;;;;5053579;28;20785;-65
2023/02/05 09:04:22;;;;;;;9.85;5.97;;;;;;;;;;5053460;28;20289;-65
2023/02/05 09:06:50;;;;;;;10.00;6.32;;;;;;;;;;5053628;28;20194;-65
2023/02/05 09:09:17;;;;;;;12.68;5.43;;;;;;;;;;5053233;28;20201;-64
2023/02/05 09:11:46;;;;;;;13.98;6.60;;;;;;;;;;5053224;28;20693;-66
2023/02/05 09:14:15;;;;;;;7.13;3.97;;;;;;;;;;5053435;28;20205;-66
2023/02/05 09:16:42;;;;;;;4.28;3.60;;;;;;;;;;5052596;28;20196;-65
2023/02/05 09:19:09;;;;;;;9.52;4.10;;;;;;;;;;5053294;28;20551;-65
2023/02/05 09:21:37;;;;;;;6.28;4.40;;;;;;;;;;5053333;28;20201;-65
2023/02/05 09:24:04;;;;;;;5.80;3.50;;;;;;;;;;5053258;28;20219;-65
2023/02/05 09:26:31;;;;;;;6.60;3.17;;;;;;;;;;5053428;28;20225;-65
2023/02/05 09:28:58;;;;;;;3.78;2.85;;;;;;;;;;5053082;28;20196;-65
2023/02/05 09:31:27;;;;;;;3.95;2.20;;;;;;;;;;5053191;28;20217;-65
2023/02/05 09:33:56;;;;;;;9.23;2.40;;;;;;;;;;5053056;28;20528;-65
2023/02/05 09:36:24;;;;;;;4.50;2.35;;;;;;;;;;5053373;28;20279;-65
2023/02/05 09:38:55;;;;;;;2.10;2.00;;;;;;;;;;5053020;28;20204;-66
2023/02/05 09:41:25;;;;;;;3.00;2.00;;;;;;;;;;5053143;28;20259;-65
2023/02/05 09:43:55;;;;;;;8.45;2.97;;;;;;;;;;5052972;28;20634;-65
2023/02/05 09:46:27;;;;;;;3.55;2.40;;;;;;;;;;5053171;28;20205;-65
2023/02/05 09:48:59;;;;;;;7.55;1.70;;;;;;;;;;5052543;28;20286;-65
2023/02/05 09:51:31;;;;;;;2.55;1.90;;;;;;;;;;5053375;28;20207;-65
2023/02/05 09:54:01;;;;;;;3.20;1.80;;;;;;;;;;5052914;28;20198;-65
2023/02/05 09:56:29;;;;;;;5.05;1.77;;;;;;;;;;5047937;28;20192;-65
2023/02/05 09:58:57;;;;;;;1.95;1.50;;;;;;;;;;5046493;28;20209;-65
2023/02/05 10:01:29;;;;;;;3.03;1.65;;;;;;;;;;5052672;28;20206;-65
2023/02/05 10:04:01;;;;;;;3.78;2.00;;;;;;;;;;5052838;28;20278;-65
2023/02/05 10:06:34;;;;;;;2.50;1.50;;;;;;;;;;5052758;28;20179;-71
2023/02/05 10:09:07;;;;;;;1.83;1.50;;;;;;;;;;5052772;28;20188;-66
2023/02/05 10:11:38;;;;;;;1.95;1.60;;;;;;;;;;5053236;28;20225;-66
2023/02/05 10:14:07;;;;;;;4.55;1.77;;;;;;;;;;5053151;28;20650;-66
2023/02/05 10:16:42;;;;;;;2.85;1.45;;;;;;;;;;5052917;28;20292;-65
2023/02/05 10:19:30;;;;;;;9.05;1.50;;;;;;;;;;5052318;28;20188;-65
2023/02/05 10:22:02;;;;;;;4.45;1.65;;;;;;;;;;5052745;28;20234;-65
2023/02/05 10:24:39;;;;;;;2.30;1.88;;;;;;;;;;5052629;28;20190;-65
2023/02/05 10:27:11;;;;;;;6.20;2.25;;;;;;;;;;5053216;28;20182;-65
2023/02/05 10:29:43;;;;;;;2.92;1.80;;;;;;;;;;5055703;28;20194;-65
2023/02/05 10:32:17;;;;;;;2.63;2.38;;;;;;;;;;5056540;28;20281;-65
2023/02/05 10:34:50;;;;;;;3.42;1.90;;;;;;;;;;5056111;28;20181;-65
2023/02/05 10:37:19;;;;;;;3.78;2.35;;;;;;;;;;5056734;28;20281;-64
2023/02/05 10:39:48;;;;;;;6.18;1.88;;;;;;;;;;5055679;28;20199;-65
2023/02/05 10:42:22;;;;;;;3.92;1.90;;;;;;;;;;5056277;28;20209;-65
2023/02/05 10:44:51;;;;;;;6.25;3.40;;;;;;;;;;5056419;28;20183;-65
2023/02/05 10:47:20;;;;;;;4.20;2.25;;;;;;;;;;5056061;28;20202;-65
2023/02/05 10:49:51;;;;;;;2.90;1.80;;;;;;;;;;5055438;28;20228;-65
2023/02/05 10:52:19;;;;;;;4.28;2.00;;;;;;;;;;5074599;28;20187;-65
2023/02/05 10:54:47;;;;;;;7.32;2.17;;;;;;;;;;5075759;28;20194;-65
2023/02/05 10:57:15;;;;;;;3.05;1.70;;;;;;;;;;5075906;28;20198;-64
2023/02/05 10:59:48;;;;;;;4.70;2.70;;;;;;;;;;5035641;28;20194;-65
2023/02/05 11:02:16;;;;;;;10.32;2.55;;;;;;;;;;5036096;28;20191;-64
2023/02/05 11:04:45;;;;;;;3.75;2.63;;;;;;;;;;5035821;28;20203;-65
2023/02/05 11:07:14;;;;;;;8.07;3.58;;;;;;;;;;5035709;28;20198;-65
2023/02/05 11:09:43;;;;;;;4.22;2.92;;;;;;;;;;5035462;28;20549;-65
2023/02/05 11:12:17;;;;;;;6.90;3.40;;;;;;;;;;5035797;28;20201;-64
2023/02/05 11:14:47;;;;;;;4.60;3.28;;;;;;;;;;5035979;28;20323;-65
2023/02/05 11:17:20;;;;;;;6.07;4.28;;;;;;;;;;5035855;28;20293;-65
2023/02/05 11:19:54;;;;;;;8.48;4.05;;;;;;;;;;5035107;28;20183;-65
2023/02/05 11:22:27;;;;;;;13.15;4.85;;;;;;;;;;5035363;28;20289;-65
2023/02/05 11:25:04;;;;;;;10.48;5.32;;;;;;;;;;5035232;28;20234;-64
2023/02/05 11:27:32;;;;;;;17.27;4.30;;;;;;;;;;5036131;28;20186;-65
2023/02/05 11:30:16;;;;;;;8.23;4.53;;;;;;;;;;5054144;28;20667;-65
2023/02/05 11:32:43;;;;;;;6.45;4.05;;;;;;;;;;5054942;28;20181;-64
2023/02/05 11:35:18;;;;;;;12.73;5.30;;;;;;;;;;5055185;28;20563;-65
2023/02/05 11:37:46;;;;;;;11.65;5.05;;;;;;;;;;5054828;28;20635;-65
2023/02/05 11:40:25;;;;;;;8.65;4.20;;;;;;;;;;5053649;28;20651;-65
2023/02/05 11:42:59;;;;;;;10.90;3.88;;;;;;;;;;5055106;28;20192;-65
2023/02/05 11:45:27;;;;;;;10.43;4.20;;;;;;;;;;5054656;28;20233;-65
2023/02/05 11:47:54;;;;;;;9.57;4.53;;;;;;;;;;5055023;28;20198;-65
2023/02/05 11:50:25;;;;;;;5.57;3.03;;;;;;;;;;5054923;28;20221;-64
2023/02/05 11:52:52;;;;;;;8.70;3.58;;;;;;;;;;5055239;28;20190;-65
2023/02/05 11:55:30;;;;;;;4.15;3.72;;;;;;;;;;5054601;28;20202;-65
2023/02/05 11:57:59;;;;;;;5.72;3.83;;;;;;;;;;5055143;28;20276;-65
2023/02/05 12:00:26;;;;;;;6.72;4.15;;;;;;;;;;5054418;28;20203;-65
2023/02/05 12:03:03;;;;;;;10.35;3.92;;;;;;;;;;5054809;28;20206;-65
2023/02/05 12:05:33;;;;;;;6.15;4.38;;;;;;;;;;5054792;28;20244;-65
2023/02/05 12:08:05;;;;;;;6.20;4.57;;;;;;;;;;5054408;28;20194;-65
2023/02/05 12:10:37;;;;;;;5.25;4.40;;;;;;;;;;5054649;28;20210;-65
2023/02/05 12:13:09;;;;;;;5.95;4.88;;;;;;;;;;5054746;28;20280;-65
2023/02/05 12:15:40;;;;;;;7.03;5.72;;;;;;;;;;5054968;28;20186;-65
2023/02/05 12:18:15;;;;;;;8.50;5.55;;;;;;;;;;5054881;28;20534;-65
2023/02/05 12:20:45;;;;;;;6.00;5.15;;;;;;;;;;5054650;28;20199;-65
2023/02/05 12:23:23;;;;;;;10.20;6.00;;;;;;;;;;5054565;28;20293;-65
2023/02/05 12:25:56;;;;;;;6.25;5.25;;;;;;;;;;5053979;28;20231;-65
2023/02/05 12:28:30;;;;;;;5.80;5.20;;;;;;;;;;5054978;28;20196;-65
2023/02/05 12:31:02;;;;;;;7.82;5.13;;;;;;;;;;5053832;28;20212;-65
2023/02/05 12:33:37;;;;;;;5.35;4.78;;;;;;;;;;5053975;28;20185;-65
2023/02/05 12:36:11;;;;;;;7.00;5.13;;;;;;;;;;5054488;28;20195;-65
2023/02/05 12:38:48;;;;;;;6.47;5.75;;;;;;;;;;5054075;28;20190;-65
2023/02/05 12:41:23;;;;;;;8.75;6.53;;;;;;;;;;5053669;28;20198;-65
2023/02/05 12:43:52;;;;;;;8.50;6.47;;;;;;;;;;5054118;28;20185;-65
2023/02/05 12:46:34;;;;;;;8.73;7.30;;;;;;;;;;5054058;28;20201;-65
2023/02/05 12:49:09;;;;;;;12.30;7.72;;;;;;;;;;5053704;28;20185;-65
2023/02/05 12:51:43;;;;;;;11.98;9.32;;;;;;;;;;5053918;28;20216;-65
2023/02/05 12:54:18;;;;;;;10.55;8.85;;;;;;;;;;5053785;28;20262;-65
2023/02/05 12:56:54;;;;;;;13.77;10.02;;;;;;;;;;5053507;28;20558;-65
2023/02/05 12:59:25;;;;;;;13.10;9.90;;;;;;;;;;5054174;28;20197;-65
2023/02/05 13:01:54;;;;;;;14.82;9.10;;;;;;;;;;5053998;28;20196;-65
2023/02/05 13:04:24;;;;;;;14.50;8.48;;;;;;;;;;5053751;28;20202;-65
2023/02/05 13:06:54;;;;;;;13.40;9.75;;;;;;;;;;5053636;28;20299;-65
2023/02/05 13:09:23;;;;;;;13.05;9.20;;;;;;;;;;5053641;28;20292;-65
2023/02/05 13:11:55;;;;;;;13.70;8.05;;;;;;;;;;5053583;28;20227;-65
2023/02/05 13:14:24;;;;;;;13.52;8.88;;;;;;;;;;5053941;28;20631;-64
2023/02/05 13:16:55;;;;;;;10.20;8.05;;;;;;;;;;5053250;28;20193;-64
2023/02/05 13:19:30;;;;;;;10.65;7.32;;;;;;;;;;5053650;28;20191;-64
2023/02/05 13:30:22;;;;;;;12.13;6.35;;;;;;;;;;5032371;28;20439;-65
2023/02/05 13:32:51;;;;;;;11.82;7.47;;;;;;;;;;5034872;28;20222;-65
2023/02/05 13:35:19;;;;;;;15.45;5.68;;;;;;;;;;5051740;28;20207;-65
2023/02/05 13:37:51;;;;;;;16.95;6.40;;;;;;;;;;5051553;28;20697;-65
2023/02/05 13:40:35;;;;;;;15.30;6.82;;;;;;;;;;5052583;28;20186;-65
2023/02/05 13:43:17;;;;;;;6.93;5.18;;;;;;;;;;5052304;28;20179;-65
2023/02/05 13:46:03;;;;;;;14.25;6.65;;;;;;;;;;5053308;28;20197;-65
2023/02/05 13:48:50;;;;;;;8.23;5.35;;;;;;;;;;5052797;28;20195;-65
2023/02/05 13:51:41;;;;;;;10.40;6.40;;;;;;;;;;5052455;28;20216;-65
2023/02/05 13:54:35;;;;;;;9.23;7.05;;;;;;;;;;5053161;28;20181;-65
2023/02/05 13:57:09;;;;;;;12.10;5.38;;;;;;;;;;5052471;28;20185;-65
2023/02/05 13:59:38;;;;;;;13.60;8.05;;;;;;;;;;5053339;28;20233;-65
2023/02/05 14:02:20;;;;;;;14.63;5.43;;;;;;;;;;5053079;28;20201;-65
2023/02/05 14:04:52;;;;;;;10.40;5.72;;;;;;;;;;5036854;28;20539;-65
2023/02/05 14:07:24;;;;;;;24.25;6.65;;;;;;;;;;5037067;28;20197;-65
2023/02/05 14:09:55;;;;;;;8.80;6.25;;;;;;;;;;5036716;28;20191;-65
2023/02/05 14:12:23;;;;;;;14.70;5.68;;;;;;;;;;5036540;28;20214;-65
2023/02/05 14:15:22;;;;;;;12.85;6.93;;;;;;;;;;5036756;28;20198;-65
2023/02/05 14:17:53;;;;;;;13.07;6.80;;;;;;;;;;5036498;28;20191;-65
2023/02/05 14:20:32;;;;;;;15.45;6.80;;;;;;;;;;5036938;28;20198;-65
2023/02/05 14:23:01;;;;;;;12.20;5.53;;;;;;;;;;5036128;28;20205;-66
2023/02/05 14:25:48;;;;;;;16.55;5.82;;;;;;;;;;5036497;28;20229;-67
2023/02/05 14:28:35;;;;;;;12.35;5.95;;;;;;;;;;5036537;28;20225;-66
2023/02/05 14:31:03;;;;;;;16.48;6.25;;;;;;;;;;5036432;28;20268;-67
2023/02/05 14:33:35;;;;;;;16.23;8.52;;;;;;;;;;5046039;28;20217;-66
2023/02/05 14:36:21;;;;;;;19.83;6.50;;;;;;;;;;5056103;28;20217;-65
2023/02/05 14:38:53;;;;;;;11.75;5.72;;;;;;;;;;5055860;28;20658;-65
2023/02/05 14:41:22;;;;;;;8.60;5.03;;;;;;;;;;5056715;28;20194;-65
2023/02/05 14:43:55;;;;;;;6.97;5.57;;;;;;;;;;5055619;28;20659;-65
2023/02/05 14:46:26;;;;;;;9.93;5.32;;;;;;;;;;5056342;28;20186;-65
2023/02/05 14:48:57;;;;;;;10.43;4.35;;;;;;;;;;5055611;28;20197;-67
2023/02/05 14:51:26;;;;;;;12.23;4.47;;;;;;;;;;5055648;28;20239;-69
2023/02/05 14:54:00;;;;;;;7.63;3.85;;;;;;;;;;5055896;28;20233;-69
2023/02/05 14:56:32;;;;;;;15.00;3.88;;;;;;;;;;5055690;28;20285;-69